sensor_id;sensor_type;location;lat;lon;timestamp;temperature;humidity
74416;SHT31;62850;42.428;25.618;2024-03-22T00:01:04;8.18;57.90
74416;SHT31;62850;42.428;25.618;2024-03-22T00:03:29;8.22;57.65
74416;SHT31;62850;42.428;25.618;2024-03-22T00:05:55;8.24;57.00
74416;SHT31;62850;42.428;25.618;2024-03-22T00:08:20;8.27;56.86
74416;SHT31;62850;42.428;25.618;2024-03-22T00:10:46;8.21;57.67
74416;SHT31;62850;42.428;25.618;2024-03-22T00:13:11;8.17;56.64
74416;SHT31;62850;42.428;25.618;2024-03-22T00:15:36;8.07;56.48
74416;SHT31;62850;42.428;25.618;2024-03-22T00:18:02;8.14;57.19
74416;SHT31;62850;42.428;25.618;2024-03-22T00:20:28;8.12;55.85
74416;SHT31;62850;42.428;25.618;2024-03-22T00:22:53;8.11;56.62
74416;SHT31;62850;42.428;25.618;2024-03-22T00:25:18;8.14;55.76
74416;SHT31;62850;42.428;25.618;2024-03-22T00:27:44;8.11;55.84
74416;SHT31;62850;42.428;25.618;2024-03-22T00:30:09;8.10;56.25
74416;SHT31;62850;42.428;25.618;2024-03-22T00:32:35;8.10;55.35
74416;SHT31;62850;42.428;25.618;2024-03-22T00:35:00;8.08;55.66
74416;SHT31;62850;42.428;25.618;2024-03-22T00:37:26;8.01;55.76
74416;SHT31;62850;42.428;25.618;2024-03-22T00:39:51;7.95;55.45
74416;SHT31;62850;42.428;25.618;2024-03-22T00:42:17;7.94;55.32
74416;SHT31;62850;42.428;25.618;2024-03-22T00:44:42;7.91;55.64
74416;SHT31;62850;42.428;25.618;2024-03-22T00:47:07;7.86;54.84
74416;SHT31;62850;42.428;25.618;2024-03-22T00:49:33;7.80;55.16
74416;SHT31;62850;42.428;25.618;2024-03-22T00:51:58;7.77;55.44
74416;SHT31;62850;42.428;25.618;2024-03-22T00:54:24;7.76;54.97
74416;SHT31;62850;42.428;25.618;2024-03-22T00:56:49;7.77;55.79
74416;SHT31;62850;42.428;25.618;2024-03-22T00:59:15;7.71;54.84
74416;SHT31;62850;42.428;25.618;2024-03-22T01:01:40;7.80;54.74
74416;SHT31;62850;42.428;25.618;2024-03-22T01:04:05;7.76;54.20
74416;SHT31;62850;42.428;25.618;2024-03-22T01:06:33;7.69;54.58
74416;SHT31;62850;42.428;25.618;2024-03-22T01:08:59;7.58;54.73
74416;SHT31;62850;42.428;25.618;2024-03-22T01:11:25;7.60;54.97
74416;SHT31;62850;42.428;25.618;2024-03-22T01:13:50;7.59;54.99
74416;SHT31;62850;42.428;25.618;2024-03-22T01:16:15;7.55;54.21
74416;SHT31;62850;42.428;25.618;2024-03-22T01:18:42;7.55;54.60
74416;SHT31;62850;42.428;25.618;2024-03-22T01:21:07;7.58;54.17
74416;SHT31;62850;42.428;25.618;2024-03-22T01:23:33;7.53;54.25
74416;SHT31;62850;42.428;25.618;2024-03-22T01:25:58;7.53;54.75
74416;SHT31;62850;42.428;25.618;2024-03-22T01:28:23;7.45;54.09
74416;SHT31;62850;42.428;25.618;2024-03-22T01:30:49;7.50;53.94
74416;SHT31;62850;42.428;25.618;2024-03-22T01:33:14;7.53;53.60
74416;SHT31;62850;42.428;25.618;2024-03-22T01:35:40;7.55;53.74
74416;SHT31;62850;42.428;25.618;2024-03-22T01:38:05;7.53;53.60
74416;SHT31;62850;42.428;25.618;2024-03-22T01:40:31;7.45;53.86
74416;SHT31;62850;42.428;25.618;2024-03-22T01:42:57;7.46;53.79
74416;SHT31;62850;42.428;25.618;2024-03-22T01:45:22;7.49;53.72
74416;SHT31;62850;42.428;25.618;2024-03-22T01:47:50;7.53;54.48
74416;SHT31;62850;42.428;25.618;2024-03-22T01:50:16;7.53;53.76
74416;SHT31;62850;42.428;25.618;2024-03-22T01:52:42;7.46;54.24
74416;SHT31;62850;42.428;25.618;2024-03-22T01:55:07;7.46;54.09
74416;SHT31;62850;42.428;25.618;2024-03-22T01:57:33;7.38;53.91
74416;SHT31;62850;42.428;25.618;2024-03-22T01:59:59;7.39;54.04
74416;SHT31;62850;42.428;25.618;2024-03-22T02:02:25;7.41;54.47
74416;SHT31;62850;42.428;25.618;2024-03-22T02:04:51;7.43;54.63
74416;SHT31;62850;42.428;25.618;2024-03-22T02:07:16;7.56;54.34
74416;SHT31;62850;42.428;25.618;2024-03-22T02:09:42;7.52;53.99
74416;SHT31;62850;42.428;25.618;2024-03-22T02:12:08;7.49;53.99
74416;SHT31;62850;42.428;25.618;2024-03-22T02:14:34;7.45;53.95
74416;SHT31;62850;42.428;25.618;2024-03-22T02:16:59;7.43;53.81
74416;SHT31;62850;42.428;25.618;2024-03-22T02:19:25;7.28;53.83
74416;SHT31;62850;42.428;25.618;2024-03-22T02:21:50;7.28;54.37
74416;SHT31;62850;42.428;25.618;2024-03-22T02:24:16;7.31;54.60
74416;SHT31;62850;42.428;25.618;2024-03-22T02:26:41;7.31;54.02
74416;SHT31;62850;42.428;25.618;2024-03-22T02:29:06;7.32;53.88
74416;SHT31;62850;42.428;25.618;2024-03-22T02:31:32;7.32;53.49
74416;SHT31;62850;42.428;25.618;2024-03-22T02:33:58;7.28;53.46
74416;SHT31;62850;42.428;25.618;2024-03-22T02:36:23;7.15;53.51
74416;SHT31;62850;42.428;25.618;2024-03-22T02:38:48;7.15;53.72
74416;SHT31;62850;42.428;25.618;2024-03-22T02:41:14;7.04;54.17
74416;SHT31;62850;42.428;25.618;2024-03-22T02:43:39;7.18;53.97
74416;SHT31;62850;42.428;25.618;2024-03-22T02:46:05;7.08;54.20
74416;SHT31;62850;42.428;25.618;2024-03-22T02:48:30;7.01;54.11
74416;SHT31;62850;42.428;25.618;2024-03-22T02:50:57;6.94;54.60
74416;SHT31;62850;42.428;25.618;2024-03-22T02:53:22;6.90;55.15
74416;SHT31;62850;42.428;25.618;2024-03-22T02:55:48;6.87;54.69
74416;SHT31;62850;42.428;25.618;2024-03-22T02:58:14;6.92;55.13
74416;SHT31;62850;42.428;25.618;2024-03-22T03:00:41;6.83;54.74
74416;SHT31;62850;42.428;25.618;2024-03-22T03:03:07;6.76;54.70
74416;SHT31;62850;42.428;25.618;2024-03-22T03:05:32;6.85;54.39
74416;SHT31;62850;42.428;25.618;2024-03-22T03:07:58;6.77;54.62
74416;SHT31;62850;42.428;25.618;2024-03-22T03:10:23;6.73;54.58
74416;SHT31;62850;42.428;25.618;2024-03-22T03:12:49;6.57;54.45
74416;SHT31;62850;42.428;25.618;2024-03-22T03:15:15;6.58;54.45
74416;SHT31;62850;42.428;25.618;2024-03-22T03:17:41;6.53;54.70
74416;SHT31;62850;42.428;25.618;2024-03-22T03:20:06;6.42;55.44
74416;SHT31;62850;42.428;25.618;2024-03-22T03:22:34;6.32;55.33
74416;SHT31;62850;42.428;25.618;2024-03-22T03:25:00;6.23;55.26
74416;SHT31;62850;42.428;25.618;2024-03-22T03:27:25;6.29;56.06
74416;SHT31;62850;42.428;25.618;2024-03-22T03:29:51;6.13;55.66
74416;SHT31;62850;42.428;25.618;2024-03-22T03:32:16;6.12;56.09
74416;SHT31;62850;42.428;25.618;2024-03-22T03:34:42;6.03;56.44
74416;SHT31;62850;42.428;25.618;2024-03-22T03:37:07;6.05;56.00
74416;SHT31;62850;42.428;25.618;2024-03-22T03:39:32;6.05;56.17
74416;SHT31;62850;42.428;25.618;2024-03-22T03:41:58;6.02;56.65
74416;SHT31;62850;42.428;25.618;2024-03-22T03:44:23;6.05;55.99
74416;SHT31;62850;42.428;25.618;2024-03-22T03:46:49;6.03;55.98
74416;SHT31;62850;42.428;25.618;2024-03-22T03:49:14;5.94;54.83
74416;SHT31;62850;42.428;25.618;2024-03-22T03:51:40;5.98;54.38
74416;SHT31;62850;42.428;25.618;2024-03-22T03:54:05;6.02;54.47
74416;SHT31;62850;42.428;25.618;2024-03-22T03:56:30;6.03;54.71
74416;SHT31;62850;42.428;25.618;2024-03-22T03:58:56;6.06;54.24
74416;SHT31;62850;42.428;25.618;2024-03-22T04:01:21;6.09;54.24
74416;SHT31;62850;42.428;25.618;2024-03-22T04:03:48;6.13;54.43
74416;SHT31;62850;42.428;25.618;2024-03-22T04:06:14;6.15;53.54
74416;SHT31;62850;42.428;25.618;2024-03-22T04:08:39;6.12;53.81
74416;SHT31;62850;42.428;25.618;2024-03-22T04:11:04;6.01;53.89
74416;SHT31;62850;42.428;25.618;2024-03-22T04:13:30;6.06;54.31
74416;SHT31;62850;42.428;25.618;2024-03-22T04:15:58;6.05;53.82
74416;SHT31;62850;42.428;25.618;2024-03-22T04:18:24;5.98;53.75
74416;SHT31;62850;42.428;25.618;2024-03-22T04:20:57;5.98;53.72
74416;SHT31;62850;42.428;25.618;2024-03-22T04:23:23;6.03;53.73
74416;SHT31;62850;42.428;25.618;2024-03-22T04:25:56;6.09;53.79
74416;SHT31;62850;42.428;25.618;2024-03-22T04:28:22;6.15;53.59
74416;SHT31;62850;42.428;25.618;2024-03-22T04:33:24;6.25;53.45
74416;SHT31;62850;42.428;25.618;2024-03-22T04:35:49;6.21;53.83
74416;SHT31;62850;42.428;25.618;2024-03-22T04:38:15;6.22;53.44
74416;SHT31;62850;42.428;25.618;2024-03-22T04:40:41;6.22;53.66
74416;SHT31;62850;42.428;25.618;2024-03-22T04:43:06;6.29;54.22
74416;SHT31;62850;42.428;25.618;2024-03-22T04:45:32;6.36;53.85
74416;SHT31;62850;42.428;25.618;2024-03-22T04:47:57;6.40;53.87
74416;SHT31;62850;42.428;25.618;2024-03-22T04:50:22;6.44;53.08
74416;SHT31;62850;42.428;25.618;2024-03-22T04:52:48;6.33;53.41
74416;SHT31;62850;42.428;25.618;2024-03-22T04:55:13;6.33;54.80
74416;SHT31;62850;42.428;25.618;2024-03-22T04:57:39;6.26;54.70
74416;SHT31;62850;42.428;25.618;2024-03-22T05:00:05;6.19;54.20
74416;SHT31;62850;42.428;25.618;2024-03-22T05:02:33;6.18;54.01
74416;SHT31;62850;42.428;25.618;2024-03-22T05:04:58;6.28;54.50
74416;SHT31;62850;42.428;25.618;2024-03-22T05:07:24;6.43;54.10
74416;SHT31;62850;42.428;25.618;2024-03-22T05:09:49;6.51;53.28
74416;SHT31;62850;42.428;25.618;2024-03-22T05:12:15;6.53;53.70
74416;SHT31;62850;42.428;25.618;2024-03-22T05:14:40;6.50;52.40
74416;SHT31;62850;42.428;25.618;2024-03-22T05:17:05;6.61;52.48
74416;SHT31;62850;42.428;25.618;2024-03-22T05:19:31;6.67;52.98
74416;SHT31;62850;42.428;25.618;2024-03-22T05:21:56;6.76;52.22
74416;SHT31;62850;42.428;25.618;2024-03-22T05:24:22;6.74;51.42
74416;SHT31;62850;42.428;25.618;2024-03-22T05:26:47;6.73;50.80
74416;SHT31;62850;42.428;25.618;2024-03-22T05:29:13;6.81;51.33
74416;SHT31;62850;42.428;25.618;2024-03-22T05:31:48;6.90;50.75
74416;SHT31;62850;42.428;25.618;2024-03-22T05:34:14;7.02;50.98
74416;SHT31;62850;42.428;25.618;2024-03-22T05:36:40;7.16;50.07
74416;SHT31;62850;42.428;25.618;2024-03-22T05:39:06;7.28;50.08
74416;SHT31;62850;42.428;25.618;2024-03-22T05:41:31;7.36;49.73
74416;SHT31;62850;42.428;25.618;2024-03-22T05:43:57;7.31;50.25
74416;SHT31;62850;42.428;25.618;2024-03-22T05:46:22;7.29;50.79
74416;SHT31;62850;42.428;25.618;2024-03-22T05:48:47;7.31;50.72
74416;SHT31;62850;42.428;25.618;2024-03-22T05:51:16;7.38;50.23
74416;SHT31;62850;42.428;25.618;2024-03-22T05:53:41;7.50;49.89
74416;SHT31;62850;42.428;25.618;2024-03-22T05:56:07;7.65;49.07
74416;SHT31;62850;42.428;25.618;2024-03-22T05:58:33;7.70;49.50
74416;SHT31;62850;42.428;25.618;2024-03-22T06:00:58;7.77;48.64
74416;SHT31;62850;42.428;25.618;2024-03-22T06:03:24;7.76;48.26
74416;SHT31;62850;42.428;25.618;2024-03-22T06:05:49;7.70;48.18
74416;SHT31;62850;42.428;25.618;2024-03-22T06:08:15;7.70;47.35
74416;SHT31;62850;42.428;25.618;2024-03-22T06:10:45;7.81;47.36
74416;SHT31;62850;42.428;25.618;2024-03-22T06:13:10;7.87;47.12
74416;SHT31;62850;42.428;25.618;2024-03-22T06:15:36;7.95;47.16
74416;SHT31;62850;42.428;25.618;2024-03-22T06:18:01;7.95;47.16
74416;SHT31;62850;42.428;25.618;2024-03-22T06:20:27;8.00;47.40
74416;SHT31;62850;42.428;25.618;2024-03-22T06:22:52;7.97;47.01
74416;SHT31;62850;42.428;25.618;2024-03-22T06:25:18;8.08;47.23
74416;SHT31;62850;42.428;25.618;2024-03-22T06:27:43;8.14;46.17
74416;SHT31;62850;42.428;25.618;2024-03-22T06:30:09;8.21;46.53
74416;SHT31;62850;42.428;25.618;2024-03-22T06:32:34;8.28;45.70
74416;SHT31;62850;42.428;25.618;2024-03-22T06:35:00;8.41;50.29
74416;SHT31;62850;42.428;25.618;2024-03-22T06:37:26;8.12;53.48
74416;SHT31;62850;42.428;25.618;2024-03-22T06:39:51;8.01;54.79
74416;SHT31;62850;42.428;25.618;2024-03-22T06:42:16;8.00;55.13
74416;SHT31;62850;42.428;25.618;2024-03-22T06:44:42;8.00;55.12
74416;SHT31;62850;42.428;25.618;2024-03-22T06:47:07;8.01;55.07
74416;SHT31;62850;42.428;25.618;2024-03-22T06:49:33;8.01;55.31
74416;SHT31;62850;42.428;25.618;2024-03-22T06:51:58;8.11;55.30
74416;SHT31;62850;42.428;25.618;2024-03-22T06:54:24;8.14;54.37
74416;SHT31;62850;42.428;25.618;2024-03-22T06:56:51;8.14;54.85
74416;SHT31;62850;42.428;25.618;2024-03-22T06:59:16;8.14;55.54
74416;SHT31;62850;42.428;25.618;2024-03-22T07:01:42;8.22;55.44
74416;SHT31;62850;42.428;25.618;2024-03-22T07:04:08;8.25;55.07
74416;SHT31;62850;42.428;25.618;2024-03-22T07:06:33;8.22;54.76
74416;SHT31;62850;42.428;25.618;2024-03-22T07:08:59;8.24;54.60
74416;SHT31;62850;42.428;25.618;2024-03-22T07:11:25;8.24;54.58
74416;SHT31;62850;42.428;25.618;2024-03-22T07:13:50;8.31;53.96
74416;SHT31;62850;42.428;25.618;2024-03-22T07:16:15;8.31;53.75
74416;SHT31;62850;42.428;25.618;2024-03-22T07:18:41;8.35;53.44
74416;SHT31;62850;42.428;25.618;2024-03-22T07:21:07;8.44;53.60
74416;SHT31;62850;42.428;25.618;2024-03-22T07:23:32;8.53;53.55
74416;SHT31;62850;42.428;25.618;2024-03-22T07:25:58;8.65;53.68
74416;SHT31;62850;42.428;25.618;2024-03-22T07:28:24;8.68;53.34
74416;SHT31;62850;42.428;25.618;2024-03-22T07:30:50;8.82;52.50
74416;SHT31;62850;42.428;25.618;2024-03-22T07:33:15;8.86;52.28
74416;SHT31;62850;42.428;25.618;2024-03-22T07:35:43;8.99;51.79
74416;SHT31;62850;42.428;25.618;2024-03-22T07:38:09;9.09;50.75
74416;SHT31;62850;42.428;25.618;2024-03-22T07:40:35;9.19;51.05
74416;SHT31;62850;42.428;25.618;2024-03-22T07:43:00;9.31;50.23
74416;SHT31;62850;42.428;25.618;2024-03-22T07:45:32;9.48;50.74
74416;SHT31;62850;42.428;25.618;2024-03-22T07:47:57;9.57;49.66
74416;SHT31;62850;42.428;25.618;2024-03-22T07:50:23;9.69;49.17
74416;SHT31;62850;42.428;25.618;2024-03-22T07:52:48;9.74;47.55
74416;SHT31;62850;42.428;25.618;2024-03-22T07:55:14;9.78;47.71
74416;SHT31;62850;42.428;25.618;2024-03-22T07:57:39;9.83;47.40
74416;SHT31;62850;42.428;25.618;2024-03-22T08:00:05;9.89;47.55
74416;SHT31;62850;42.428;25.618;2024-03-22T08:02:32;9.99;47.97
74416;SHT31;62850;42.428;25.618;2024-03-22T08:04:57;10.08;48.04
74416;SHT31;62850;42.428;25.618;2024-03-22T08:07:23;10.14;47.95
74416;SHT31;62850;42.428;25.618;2024-03-22T08:09:48;10.23;48.37
74416;SHT31;62850;42.428;25.618;2024-03-22T08:12:14;10.24;48.66
74416;SHT31;62850;42.428;25.618;2024-03-22T08:14:39;10.36;48.80
74416;SHT31;62850;42.428;25.618;2024-03-22T08:17:06;10.37;47.85
74416;SHT31;62850;42.428;25.618;2024-03-22T08:19:32;10.37;48.24
74416;SHT31;62850;42.428;25.618;2024-03-22T08:21:57;10.43;47.08
74416;SHT31;62850;42.428;25.618;2024-03-22T08:24:24;10.41;47.66
74416;SHT31;62850;42.428;25.618;2024-03-22T08:26:50;10.51;46.93
74416;SHT31;62850;42.428;25.618;2024-03-22T08:29:15;10.61;48.02
74416;SHT31;62850;42.428;25.618;2024-03-22T08:31:41;10.64;48.32
74416;SHT31;62850;42.428;25.618;2024-03-22T08:34:08;10.67;48.06
74416;SHT31;62850;42.428;25.618;2024-03-22T08:36:34;10.65;47.04
74416;SHT31;62850;42.428;25.618;2024-03-22T08:38:59;10.63;46.40
74416;SHT31;62850;42.428;25.618;2024-03-22T08:41:25;10.61;46.16
74416;SHT31;62850;42.428;25.618;2024-03-22T08:43:50;10.69;46.39
74416;SHT31;62850;42.428;25.618;2024-03-22T08:46:16;10.82;45.93
74416;SHT31;62850;42.428;25.618;2024-03-22T08:48:41;10.85;44.48
74416;SHT31;62850;42.428;25.618;2024-03-22T08:51:07;10.87;44.40
74416;SHT31;62850;42.428;25.618;2024-03-22T08:53:32;10.89;44.71
74416;SHT31;62850;42.428;25.618;2024-03-22T08:55:59;11.01;43.81
74416;SHT31;62850;42.428;25.618;2024-03-22T08:58:24;11.05;44.72
74416;SHT31;62850;42.428;25.618;2024-03-22T09:00:50;11.20;45.03
74416;SHT31;62850;42.428;25.618;2024-03-22T09:03:15;11.35;45.16
74416;SHT31;62850;42.428;25.618;2024-03-22T09:05:41;11.33;45.11
74416;SHT31;62850;42.428;25.618;2024-03-22T09:08:06;11.39;44.39
74416;SHT31;62850;42.428;25.618;2024-03-22T09:10:32;11.44;44.22
74416;SHT31;62850;42.428;25.618;2024-03-22T09:12:57;11.47;44.28
74416;SHT31;62850;42.428;25.618;2024-03-22T09:15:23;11.60;43.32
74416;SHT31;62850;42.428;25.618;2024-03-22T09:17:49;11.64;42.28
74416;SHT31;62850;42.428;25.618;2024-03-22T09:20:15;11.83;41.72
74416;SHT31;62850;42.428;25.618;2024-03-22T09:22:40;11.98;40.93
74416;SHT31;62850;42.428;25.618;2024-03-22T09:25:06;12.08;42.38
74416;SHT31;62850;42.428;25.618;2024-03-22T09:27:32;12.22;42.82
74416;SHT31;62850;42.428;25.618;2024-03-22T09:29:58;12.28;42.62
74416;SHT31;62850;42.428;25.618;2024-03-22T09:32:23;12.42;41.15
74416;SHT31;62850;42.428;25.618;2024-03-22T09:34:49;12.50;41.31
74416;SHT31;62850;42.428;25.618;2024-03-22T09:37:15;12.60;40.80
74416;SHT31;62850;42.428;25.618;2024-03-22T09:39:41;12.67;40.22
74416;SHT31;62850;42.428;25.618;2024-03-22T09:42:06;12.70;39.85
74416;SHT31;62850;42.428;25.618;2024-03-22T09:44:33;12.76;39.58
74416;SHT31;62850;42.428;25.618;2024-03-22T09:47:00;12.87;39.73
74416;SHT31;62850;42.428;25.618;2024-03-22T09:49:27;13.02;38.86
74416;SHT31;62850;42.428;25.618;2024-03-22T09:51:52;13.07;38.21
74416;SHT31;62850;42.428;25.618;2024-03-22T09:54:18;13.07;37.77
74416;SHT31;62850;42.428;25.618;2024-03-22T09:56:43;13.07;38.04
74416;SHT31;62850;42.428;25.618;2024-03-22T09:59:09;13.14;38.72
74416;SHT31;62850;42.428;25.618;2024-03-22T10:01:39;13.31;38.33
74416;SHT31;62850;42.428;25.618;2024-03-22T10:04:05;13.44;38.53
74416;SHT31;62850;42.428;25.618;2024-03-22T10:06:31;13.55;36.35
74416;SHT31;62850;42.428;25.618;2024-03-22T10:09:00;13.64;36.60
74416;SHT31;62850;42.428;25.618;2024-03-22T10:11:27;13.73;36.74
74416;SHT31;62850;42.428;25.618;2024-03-22T10:13:53;13.87;36.33
74416;SHT31;62850;42.428;25.618;2024-03-22T10:16:21;13.98;35.17
74416;SHT31;62850;42.428;25.618;2024-03-22T10:18:46;14.01;34.66
74416;SHT31;62850;42.428;25.618;2024-03-22T10:21:17;14.05;34.90
74416;SHT31;62850;42.428;25.618;2024-03-22T10:23:43;14.13;34.45
74416;SHT31;62850;42.428;25.618;2024-03-22T10:26:10;14.24;32.78
74416;SHT31;62850;42.428;25.618;2024-03-22T10:28:35;14.22;33.56
74416;SHT31;62850;42.428;25.618;2024-03-22T10:31:01;14.12;33.05
74416;SHT31;62850;42.428;25.618;2024-03-22T10:33:28;14.29;32.51
74416;SHT31;62850;42.428;25.618;2024-03-22T10:35:54;14.45;31.93
74416;SHT31;62850;42.428;25.618;2024-03-22T10:38:20;14.72;31.18
74416;SHT31;62850;42.428;25.618;2024-03-22T10:40:47;14.78;30.61
74416;SHT31;62850;42.428;25.618;2024-03-22T10:43:16;14.75;31.15
74416;SHT31;62850;42.428;25.618;2024-03-22T10:45:42;14.99;32.03
74416;SHT31;62850;42.428;25.618;2024-03-22T10:48:11;15.42;32.10
74416;SHT31;62850;42.428;25.618;2024-03-22T10:50:41;15.64;31.72
74416;SHT31;62850;42.428;25.618;2024-03-22T10:53:19;15.83;31.77
74416;SHT31;62850;42.428;25.618;2024-03-22T10:55:47;15.97;30.69
74416;SHT31;62850;42.428;25.618;2024-03-22T10:58:17;15.97;30.36
74416;SHT31;62850;42.428;25.618;2024-03-22T11:00:43;16.00;29.60
74416;SHT31;62850;42.428;25.618;2024-03-22T11:03:09;15.84;29.33
74416;SHT31;62850;42.428;25.618;2024-03-22T11:05:34;15.66;29.81
74416;SHT31;62850;42.428;25.618;2024-03-22T11:08:03;15.40;30.95
74416;SHT31;62850;42.428;25.618;2024-03-22T11:10:30;15.53;30.56
74416;SHT31;62850;42.428;25.618;2024-03-22T11:13:01;15.49;28.89
74416;SHT31;62850;42.428;25.618;2024-03-22T11:15:31;15.61;29.35
74416;SHT31;62850;42.428;25.618;2024-03-22T11:17:57;15.76;29.54
74416;SHT31;62850;42.428;25.618;2024-03-22T11:20:23;15.79;29.01
74416;SHT31;62850;42.428;25.618;2024-03-22T11:22:50;15.49;29.37
74416;SHT31;62850;42.428;25.618;2024-03-22T11:25:16;15.38;29.17
74416;SHT31;62850;42.428;25.618;2024-03-22T11:27:41;15.22;27.49
74416;SHT31;62850;42.428;25.618;2024-03-22T11:30:07;15.19;26.89
74416;SHT31;62850;42.428;25.618;2024-03-22T11:32:33;15.11;26.81
74416;SHT31;62850;42.428;25.618;2024-03-22T11:35:07;15.15;26.60
74416;SHT31;62850;42.428;25.618;2024-03-22T11:37:34;15.21;26.10
74416;SHT31;62850;42.428;25.618;2024-03-22T11:39:59;15.22;26.40
74416;SHT31;62850;42.428;25.618;2024-03-22T11:42:25;15.29;26.17
74416;SHT31;62850;42.428;25.618;2024-03-22T11:44:50;15.22;26.29
74416;SHT31;62850;42.428;25.618;2024-03-22T11:47:16;15.21;26.18
74416;SHT31;62850;42.428;25.618;2024-03-22T11:49:41;15.28;25.83
74416;SHT31;62850;42.428;25.618;2024-03-22T11:52:08;15.46;25.65
74416;SHT31;62850;42.428;25.618;2024-03-22T11:54:33;15.69;25.03
74416;SHT31;62850;42.428;25.618;2024-03-22T11:56:59;15.91;25.10
74416;SHT31;62850;42.428;25.618;2024-03-22T11:59:24;15.66;25.60
74416;SHT31;62850;42.428;25.618;2024-03-22T12:01:50;15.89;25.78
74416;SHT31;62850;42.428;25.618;2024-03-22T12:04:15;16.15;25.30
74416;SHT31;62850;42.428;25.618;2024-03-22T12:06:42;16.31;25.65
74416;SHT31;62850;42.428;25.618;2024-03-22T12:09:08;16.68;25.14
74416;SHT31;62850;42.428;25.618;2024-03-22T12:11:36;17.06;24.75
74416;SHT31;62850;42.428;25.618;2024-03-22T12:14:02;17.37;24.30
74416;SHT31;62850;42.428;25.618;2024-03-22T12:16:27;17.72;26.80
74416;SHT31;62850;42.428;25.618;2024-03-22T12:18:52;17.82;28.84
74416;SHT31;62850;42.428;25.618;2024-03-22T12:21:18;18.02;29.02
74416;SHT31;62850;42.428;25.618;2024-03-22T12:23:43;18.20;28.87
74416;SHT31;62850;42.428;25.618;2024-03-22T12:26:09;18.26;28.60
74416;SHT31;62850;42.428;25.618;2024-03-22T12:28:34;18.18;28.43
74416;SHT31;62850;42.428;25.618;2024-03-22T12:31:00;18.05;29.07
74416;SHT31;62850;42.428;25.618;2024-03-22T12:33:25;18.22;29.09
74416;SHT31;62850;42.428;25.618;2024-03-22T12:35:51;18.41;29.17
74416;SHT31;62850;42.428;25.618;2024-03-22T12:38:18;18.46;28.79
74416;SHT31;62850;42.428;25.618;2024-03-22T12:40:43;18.33;28.56
74416;SHT31;62850;42.428;25.618;2024-03-22T12:43:09;18.13;29.25
74416;SHT31;62850;42.428;25.618;2024-03-22T12:45:36;18.34;28.93
74416;SHT31;62850;42.428;25.618;2024-03-22T12:48:01;18.14;28.51
74416;SHT31;62850;42.428;25.618;2024-03-22T12:50:27;18.13;28.64
74416;SHT31;62850;42.428;25.618;2024-03-22T12:52:52;18.36;28.95
74416;SHT31;62850;42.428;25.618;2024-03-22T12:55:18;18.61;27.74
74416;SHT31;62850;42.428;25.618;2024-03-22T12:57:43;18.58;27.66
74416;SHT31;62850;42.428;25.618;2024-03-22T13:00:09;18.14;28.01
74416;SHT31;62850;42.428;25.618;2024-03-22T13:02:44;18.13;28.25
74416;SHT31;62850;42.428;25.618;2024-03-22T13:05:10;18.36;28.15
74416;SHT31;62850;42.428;25.618;2024-03-22T13:07:36;18.48;27.76
74416;SHT31;62850;42.428;25.618;2024-03-22T13:10:02;18.06;28.09
74416;SHT31;62850;42.428;25.618;2024-03-22T13:12:28;17.99;27.91
74416;SHT31;62850;42.428;25.618;2024-03-22T13:14:56;18.18;27.37
74416;SHT31;62850;42.428;25.618;2024-03-22T13:17:21;18.33;27.51
74416;SHT31;62850;42.428;25.618;2024-03-22T13:19:47;18.57;27.08
74416;SHT31;62850;42.428;25.618;2024-03-22T13:22:12;18.74;27.16
74416;SHT31;62850;42.428;25.618;2024-03-22T13:24:38;18.72;27.41
74416;SHT31;62850;42.428;25.618;2024-03-22T13:27:03;18.83;26.74
74416;SHT31;62850;42.428;25.618;2024-03-22T13:29:29;18.83;26.63
74416;SHT31;62850;42.428;25.618;2024-03-22T13:31:54;18.60;27.47
74416;SHT31;62850;42.428;25.618;2024-03-22T13:34:20;18.75;26.75
74416;SHT31;62850;42.428;25.618;2024-03-22T13:36:45;19.04;26.52
74416;SHT31;62850;42.428;25.618;2024-03-22T13:39:12;18.99;26.36
74416;SHT31;62850;42.428;25.618;2024-03-22T13:41:41;18.95;26.31
74416;SHT31;62850;42.428;25.618;2024-03-22T13:44:06;18.61;26.45
74416;SHT31;62850;42.428;25.618;2024-03-22T13:46:33;18.69;27.16
74416;SHT31;62850;42.428;25.618;2024-03-22T13:49:02;18.83;26.97
74416;SHT31;62850;42.428;25.618;2024-03-22T13:51:28;18.98;26.47
74416;SHT31;62850;42.428;25.618;2024-03-22T13:53:54;18.92;26.40
74416;SHT31;62850;42.428;25.618;2024-03-22T13:56:20;18.65;27.33
74416;SHT31;62850;42.428;25.618;2024-03-22T13:58:46;18.69;26.64
74416;SHT31;62850;42.428;25.618;2024-03-22T14:01:12;18.64;26.51
74416;SHT31;62850;42.428;25.618;2024-03-22T14:03:37;18.71;26.98
74416;SHT31;62850;42.428;25.618;2024-03-22T14:06:03;18.65;26.83
74416;SHT31;62850;42.428;25.618;2024-03-22T14:08:29;18.65;26.78
74416;SHT31;62850;42.428;25.618;2024-03-22T14:10:54;18.65;25.93
74416;SHT31;62850;42.428;25.618;2024-03-22T14:13:19;18.74;25.97
74416;SHT31;62850;42.428;25.618;2024-03-22T14:15:45;18.79;26.61
74416;SHT31;62850;42.428;25.618;2024-03-22T14:18:10;18.77;25.67
74416;SHT31;62850;42.428;25.618;2024-03-22T14:20:36;18.69;25.91
74416;SHT31;62850;42.428;25.618;2024-03-22T14:23:01;18.58;26.67
74416;SHT31;62850;42.428;25.618;2024-03-22T14:25:27;18.61;26.88
74416;SHT31;62850;42.428;25.618;2024-03-22T14:27:53;18.84;26.55
74416;SHT31;62850;42.428;25.618;2024-03-22T14:30:19;18.87;26.41
74416;SHT31;62850;42.428;25.618;2024-03-22T14:32:44;18.44;27.49
74416;SHT31;62850;42.428;25.618;2024-03-22T14:35:10;18.13;28.48
74416;SHT31;62850;42.428;25.618;2024-03-22T14:37:36;18.02;28.53
74416;SHT31;62850;42.428;25.618;2024-03-22T14:40:02;18.27;28.01
74416;SHT31;62850;42.428;25.618;2024-03-22T14:42:30;18.41;27.66
74416;SHT31;62850;42.428;25.618;2024-03-22T14:44:56;18.34;27.97
74416;SHT31;62850;42.428;25.618;2024-03-22T14:47:21;18.41;28.34
74416;SHT31;62850;42.428;25.618;2024-03-22T14:49:49;18.51;28.16
74416;SHT31;62850;42.428;25.618;2024-03-22T14:52:14;18.67;27.50
74416;SHT31;62850;42.428;25.618;2024-03-22T14:54:40;18.77;27.71
74416;SHT31;62850;42.428;25.618;2024-03-22T14:57:05;18.69;27.24
74416;SHT31;62850;42.428;25.618;2024-03-22T14:59:31;18.71;27.34
74416;SHT31;62850;42.428;25.618;2024-03-22T15:01:56;18.83;26.93
74416;SHT31;62850;42.428;25.618;2024-03-22T15:04:22;18.74;27.08
74416;SHT31;62850;42.428;25.618;2024-03-22T15:06:48;18.74;27.11
74416;SHT31;62850;42.428;25.618;2024-03-22T15:09:19;18.79;27.19
74416;SHT31;62850;42.428;25.618;2024-03-22T15:11:45;18.75;27.29
74416;SHT31;62850;42.428;25.618;2024-03-22T15:14:12;18.60;27.18
74416;SHT31;62850;42.428;25.618;2024-03-22T15:16:39;18.48;26.95
74416;SHT31;62850;42.428;25.618;2024-03-22T15:19:05;18.32;27.33